Time;durP1;ratioP1;P1;durP2;ratioP2;P2;SDS_P1;SDS_P2;PMS_P1;PMS_P2;Temp;Humidity;BMP_temperature;BMP_pressure;BME280_temperature;BME280_humidity;BME280_pressure;Samples;Min_cycle;Max_cycle;Signal;HPM_P1;HPM_P2
2021/08/18 00:01:45;;;;;;;8.73;3.30;;;;;;;;;;4998137;28;20034;-56
2021/08/18 00:04:11;;;;;;;13.25;3.65;;;;;;;;;;5001806;28;20045;-55
2021/08/18 00:06:38;;;;;;;6.20;3.20;;;;;;;;;;5000292;28;20393;-55
2021/08/18 00:09:05;;;;;;;6.70;3.30;;;;;;;;;;4986511;28;20053;-54
2021/08/18 00:11:31;;;;;;;7.47;3.58;;;;;;;;;;5011409;28;20034;-55
2021/08/18 00:13:58;;;;;;;6.50;2.97;;;;;;;;;;4986047;28;20062;-56
2021/08/18 00:16:26;;;;;;;6.05;2.83;;;;;;;;;;4983752;28;20131;-55
2021/08/18 00:18:54;;;;;;;10.75;3.28;;;;;;;;;;5005799;28;20042;-55
2021/08/18 00:21:21;;;;;;;6.45;3.00;;;;;;;;;;5023312;28;20041;-56
2021/08/18 00:23:47;;;;;;;8.98;2.90;;;;;;;;;;4981682;28;20050;-53
2021/08/18 00:26:14;;;;;;;6.15;2.72;;;;;;;;;;4985962;28;20046;-56
2021/08/18 00:28:40;;;;;;;6.95;2.90;;;;;;;;;;4994496;28;20057;-55
2021/08/18 00:31:07;;;;;;;7.45;3.13;;;;;;;;;;4998650;28;20046;-55
2021/08/18 00:33:33;;;;;;;7.80;2.92;;;;;;;;;;4998399;28;20034;-54
2021/08/18 00:36:01;;;;;;;9.57;3.30;;;;;;;;;;4984865;28;20053;-55
2021/08/18 00:38:28;;;;;;;10.00;3.30;;;;;;;;;;4993373;28;20065;-56
2021/08/18 00:40:54;;;;;;;8.25;3.10;;;;;;;;;;5004494;28;20042;-54
2021/08/18 00:43:21;;;;;;;8.07;3.08;;;;;;;;;;5017746;28;20061;-56
2021/08/18 00:45:47;;;;;;;10.80;3.20;;;;;;;;;;5004071;28;20044;-56
2021/08/18 00:48:16;;;;;;;8.18;3.05;;;;;;;;;;4996559;28;20022;-56
2021/08/18 00:50:43;;;;;;;11.75;3.05;;;;;;;;;;5002795;28;20042;-55
2021/08/18 00:53:14;;;;;;;11.23;3.60;;;;;;;;;;5000487;28;28696;-57
2021/08/18 00:55:40;;;;;;;5.85;3.10;;;;;;;;;;5004041;28;20049;-56
2021/08/18 00:58:08;;;;;;;7.05;3.55;;;;;;;;;;5001233;28;20116;-57
2021/08/18 01:00:36;;;;;;;8.38;3.78;;;;;;;;;;5002132;28;20050;-55
2021/08/18 01:03:03;;;;;;;16.45;3.72;;;;;;;;;;4984512;28;20046;-55
2021/08/18 01:05:30;;;;;;;9.05;3.50;;;;;;;;;;4983714;28;20053;-56
2021/08/18 01:07:58;;;;;;;7.15;3.47;;;;;;;;;;4986686;28;20035;-56
2021/08/18 01:10:27;;;;;;;8.23;3.28;;;;;;;;;;5010447;28;20060;-56
2021/08/18 01:12:54;;;;;;;11.57;3.55;;;;;;;;;;5006430;28;20115;-56
2021/08/18 01:15:21;;;;;;;6.20;3.35;;;;;;;;;;4988139;28;20127;-60
2021/08/18 01:17:49;;;;;;;9.07;3.88;;;;;;;;;;4985961;28;20046;-56
2021/08/18 01:20:17;;;;;;;9.13;3.42;;;;;;;;;;4982598;28;20070;-56
2021/08/18 01:22:43;;;;;;;12.13;3.97;;;;;;;;;;4985013;28;20053;-56
2021/08/18 01:25:11;;;;;;;9.50;4.00;;;;;;;;;;4981414;28;20042;-56
2021/08/18 01:27:44;;;;;;;12.43;3.75;;;;;;;;;;4986092;28;20082;-56
2021/08/18 01:30:13;;;;;;;7.43;3.03;;;;;;;;;;4982423;28;20038;-56
2021/08/18 01:32:43;;;;;;;5.78;2.78;;;;;;;;;;5002568;28;20042;-55
2021/08/18 01:35:16;;;;;;;10.32;3.55;;;;;;;;;;4989072;28;20038;-56
2021/08/18 01:37:42;;;;;;;7.32;3.22;;;;;;;;;;5023482;28;20038;-55
2021/08/18 01:40:10;;;;;;;7.40;3.15;;;;;;;;;;4997700;28;20054;-55
2021/08/18 01:42:37;;;;;;;5.93;3.28;;;;;;;;;;5000258;28;20039;-55
2021/08/18 01:45:04;;;;;;;7.97;3.20;;;;;;;;;;5001793;28;20061;-55
2021/08/18 01:47:34;;;;;;;7.22;3.05;;;;;;;;;;5005072;28;20052;-56
2021/08/18 01:50:01;;;;;;;6.43;3.00;;;;;;;;;;4982610;28;20050;-56
2021/08/18 01:52:28;;;;;;;8.95;2.90;;;;;;;;;;5004227;28;20038;-56
2021/08/18 01:54:54;;;;;;;7.18;3.03;;;;;;;;;;5003052;28;20048;-57
2021/08/18 01:57:20;;;;;;;6.32;2.95;;;;;;;;;;4999320;28;20065;-55
2021/08/18 01:59:47;;;;;;;10.57;3.40;;;;;;;;;;5005064;28;20096;-57
2021/08/18 02:02:16;;;;;;;9.40;3.08;;;;;;;;;;4999409;28;20042;-56
2021/08/18 02:04:44;;;;;;;5.85;3.00;;;;;;;;;;5000831;28;20050;-54
2021/08/18 02:07:11;;;;;;;5.53;2.77;;;;;;;;;;4983415;28;20050;-56
2021/08/18 02:09:37;;;;;;;7.05;2.65;;;;;;;;;;4982304;28;20027;-55
2021/08/18 02:12:04;;;;;;;5.97;2.58;;;;;;;;;;4980852;28;20038;-55
2021/08/18 02:14:31;;;;;;;6.10;2.70;;;;;;;;;;4981706;28;20050;-55
2021/08/18 02:16:57;;;;;;;8.38;2.67;;;;;;;;;;4978285;28;20054;-56
2021/08/18 02:19:23;;;;;;;10.80;2.55;;;;;;;;;;4982892;28;20046;-56
2021/08/18 02:21:52;;;;;;;8.05;2.58;;;;;;;;;;4982784;28;20050;-57
2021/08/18 02:24:19;;;;;;;4.47;2.17;;;;;;;;;;5001956;28;20049;-56
2021/08/18 02:26:45;;;;;;;4.68;2.15;;;;;;;;;;4995388;28;20053;-54
2021/08/18 02:29:12;;;;;;;5.40;2.05;;;;;;;;;;4987059;28;20098;-57
2021/08/18 02:31:38;;;;;;;6.20;2.20;;;;;;;;;;4981985;28;20058;-56
2021/08/18 02:34:08;;;;;;;4.30;2.03;;;;;;;;;;4985697;28;20030;-56
2021/08/18 02:36:35;;;;;;;8.00;2.60;;;;;;;;;;4985229;28;20042;-56
2021/08/18 02:39:03;;;;;;;7.20;2.10;;;;;;;;;;4979806;28;20043;-56
2021/08/18 02:41:30;;;;;;;5.20;2.25;;;;;;;;;;4985873;28;20108;-55
2021/08/18 02:43:56;;;;;;;5.18;2.08;;;;;;;;;;4981778;28;20050;-57
2021/08/18 02:46:23;;;;;;;4.78;2.10;;;;;;;;;;4987064;28;20034;-57
2021/08/18 02:48:49;;;;;;;7.50;2.35;;;;;;;;;;4980487;28;20046;-56
2021/08/18 02:51:16;;;;;;;7.05;2.28;;;;;;;;;;5003585;28;20046;-57
2021/08/18 02:53:42;;;;;;;7.55;2.40;;;;;;;;;;4998704;28;20046;-56
2021/08/18 02:56:10;;;;;;;7.32;2.08;;;;;;;;;;5001541;28;20038;-55
2021/08/18 02:58:36;;;;;;;5.22;1.95;;;;;;;;;;4992471;28;20046;-54
2021/08/18 03:01:03;;;;;;;5.50;2.10;;;;;;;;;;4982581;28;20046;-56
2021/08/18 03:03:30;;;;;;;4.47;2.10;;;;;;;;;;4985705;28;20096;-55
2021/08/18 03:05:56;;;;;;;4.68;2.10;;;;;;;;;;5002959;28;20050;-54
2021/08/18 03:08:22;;;;;;;5.00;2.03;;;;;;;;;;4998154;28;20038;-55
2021/08/18 03:10:50;;;;;;;6.70;1.80;;;;;;;;;;4992277;28;20053;-56
2021/08/18 03:13:18;;;;;;;3.33;1.63;;;;;;;;;;4980461;28;20039;-55
2021/08/18 03:15:44;;;;;;;5.03;2.10;;;;;;;;;;4983085;28;20163;-56
2021/08/18 03:18:11;;;;;;;4.45;2.10;;;;;;;;;;4985282;28;20272;-57
2021/08/18 03:20:38;;;;;;;4.45;2.03;;;;;;;;;;4980085;28;21869;-56
2021/08/18 03:23:05;;;;;;;5.45;1.98;;;;;;;;;;4982696;28;20039;-56
2021/08/18 03:25:31;;;;;;;6.43;2.00;;;;;;;;;;4980949;28;20042;-56
2021/08/18 03:27:58;;;;;;;3.83;1.90;;;;;;;;;;4983595;28;20050;-56
2021/08/18 03:30:26;;;;;;;6.05;2.28;;;;;;;;;;4995425;28;20061;-56
2021/08/18 03:32:53;;;;;;;3.42;1.83;;;;;;;;;;5002445;28;20038;-54
2021/08/18 03:35:19;;;;;;;6.13;2.13;;;;;;;;;;4986604;28;20050;-55
2021/08/18 03:37:46;;;;;;;6.80;2.05;;;;;;;;;;4983564;28;20049;-56
2021/08/18 03:40:13;;;;;;;5.47;2.10;;;;;;;;;;4980571;28;20035;-54
2021/08/18 03:42:39;;;;;;;4.88;2.10;;;;;;;;;;4982948;28;20054;-56
2021/08/18 03:45:06;;;;;;;6.38;1.83;;;;;;;;;;4983586;28;20125;-56
2021/08/18 03:47:34;;;;;;;5.78;2.13;;;;;;;;;;4982945;28;20053;-57
2021/08/18 03:50:01;;;;;;;8.65;2.38;;;;;;;;;;4980362;28;20100;-56
2021/08/18 03:52:27;;;;;;;7.00;2.47;;;;;;;;;;4983201;28;20053;-56
2021/08/18 03:54:54;;;;;;;9.00;2.50;;;;;;;;;;4986952;28;20042;-57
2021/08/18 03:57:20;;;;;;;5.65;2.55;;;;;;;;;;4983032;28;20047;-56
2021/08/18 03:59:47;;;;;;;6.80;2.72;;;;;;;;;;4982766;28;20046;-56
2021/08/18 04:02:13;;;;;;;7.65;2.70;;;;;;;;;;4979714;28;20067;-54
2021/08/18 04:04:41;;;;;;;9.18;2.90;;;;;;;;;;4995840;28;20042;-56
2021/08/18 04:07:07;;;;;;;6.57;2.72;;;;;;;;;;4985321;28;20039;-56
2021/08/18 04:09:34;;;;;;;7.30;2.65;;;;;;;;;;4986640;28;20045;-56
2021/08/18 04:12:01;;;;;;;7.03;2.72;;;;;;;;;;4983004;28;20289;-56
2021/08/18 04:14:27;;;;;;;6.50;2.70;;;;;;;;;;4987191;28;20057;-56
2021/08/18 04:16:53;;;;;;;6.60;2.50;;;;;;;;;;4985304;28;20054;-56
2021/08/18 04:19:20;;;;;;;7.72;2.90;;;;;;;;;;4987944;28;20048;-56
2021/08/18 04:21:50;;;;;;;5.65;2.47;;;;;;;;;;4985743;28;20120;-57
2021/08/18 04:24:17;;;;;;;12.68;2.97;;;;;;;;;;5005087;28;20054;-56
2021/08/18 04:26:44;;;;;;;7.38;2.45;;;;;;;;;;4983982;28;20065;-55
2021/08/18 04:29:10;;;;;;;5.93;2.60;;;;;;;;;;4986147;28;20049;-55
2021/08/18 04:31:37;;;;;;;10.10;2.42;;;;;;;;;;4985507;28;20049;-54
2021/08/18 04:34:03;;;;;;;6.07;2.20;;;;;;;;;;5022696;28;20045;-56
2021/08/18 04:36:30;;;;;;;12.32;2.50;;;;;;;;;;5000006;28;20038;-57
2021/08/18 04:38:58;;;;;;;5.88;2.13;;;;;;;;;;5003858;28;20041;-57
2021/08/18 04:41:24;;;;;;;4.57;1.90;;;;;;;;;;5004566;28;20037;-56
2021/08/18 04:43:52;;;;;;;4.22;1.98;;;;;;;;;;5000344;28;20043;-56
2021/08/18 04:46:19;;;;;;;5.43;2.13;;;;;;;;;;4984945;28;20042;-56
2021/08/18 04:48:45;;;;;;;4.63;2.00;;;;;;;;;;4982641;28;20038;-56
2021/08/18 04:51:15;;;;;;;5.75;1.92;;;;;;;;;;4983925;28;20042;-56
2021/08/18 04:53:42;;;;;;;5.40;2.10;;;;;;;;;;4982149;28;20034;-56
2021/08/18 04:56:10;;;;;;;8.57;2.20;;;;;;;;;;4984711;28;20034;-55
2021/08/18 04:58:36;;;;;;;7.30;2.17;;;;;;;;;;4993545;28;20056;-56
2021/08/18 05:01:03;;;;;;;6.28;2.03;;;;;;;;;;5004877;28;20056;-54
2021/08/18 05:03:29;;;;;;;4.82;2.28;;;;;;;;;;4991023;28;20045;-54
2021/08/18 05:05:55;;;;;;;4.22;2.10;;;;;;;;;;4987181;28;20413;-56
2021/08/18 05:08:22;;;;;;;5.57;2.63;;;;;;;;;;4962529;28;20034;-57
2021/08/18 05:10:48;;;;;;;10.82;4.07;;;;;;;;;;4975875;28;20052;-56
2021/08/18 05:13:17;;;;;;;9.77;4.88;;;;;;;;;;4977814;28;20038;-55
2021/08/18 05:15:44;;;;;;;8.45;3.40;;;;;;;;;;4965713;28;20049;-55
2021/08/18 05:18:10;;;;;;;8.57;2.55;;;;;;;;;;4965698;28;20043;-56
2021/08/18 05:20:36;;;;;;;7.13;2.38;;;;;;;;;;4982812;28;20042;-56
2021/08/18 05:23:03;;;;;;;8.32;2.22;;;;;;;;;;4982053;28;20062;-56
2021/08/18 05:25:29;;;;;;;10.13;2.38;;;;;;;;;;4987589;28;20038;-54
2021/08/18 05:28:03;;;;;;;5.38;2.10;;;;;;;;;;4982059;28;20042;-57
2021/08/18 05:30:31;;;;;;;4.85;1.90;;;;;;;;;;4979454;28;20026;-57
2021/08/18 05:32:57;;;;;;;7.07;2.33;;;;;;;;;;4982445;28;20050;-57
2021/08/18 05:35:24;;;;;;;8.07;2.53;;;;;;;;;;4981869;28;20115;-56
2021/08/18 05:37:50;;;;;;;5.07;2.20;;;;;;;;;;4999802;28;20179;-55
2021/08/18 05:40:18;;;;;;;9.35;2.20;;;;;;;;;;4976416;28;20045;-56
2021/08/18 05:42:44;;;;;;;9.13;3.72;;;;;;;;;;4995226;28;20039;-56
2021/08/18 05:45:11;;;;;;;9.05;3.45;;;;;;;;;;4977844;28;20053;-54
2021/08/18 05:47:39;;;;;;;10.23;4.90;;;;;;;;;;4977778;28;20050;-56
2021/08/18 05:50:06;;;;;;;5.78;2.85;;;;;;;;;;4978839;28;20054;-56
2021/08/18 05:52:32;;;;;;;4.72;2.13;;;;;;;;;;4981549;28;20129;-56
2021/08/18 05:55:02;;;;;;;9.85;2.50;;;;;;;;;;4991542;28;20106;-56
2021/08/18 05:57:29;;;;;;;4.97;1.92;;;;;;;;;;4994483;28;20125;-55
2021/08/18 05:59:55;;;;;;;7.20;2.20;;;;;;;;;;4992925;28;20050;-57
2021/08/18 06:02:22;;;;;;;4.53;2.13;;;;;;;;;;4992041;28;20041;-56
2021/08/18 06:04:49;;;;;;;13.00;2.95;;;;;;;;;;4983238;28;20042;-53
2021/08/18 06:07:18;;;;;;;15.70;7.85;;;;;;;;;;4998541;28;20047;-56
2021/08/18 06:09:47;;;;;;;10.23;4.47;;;;;;;;;;4998641;28;20034;-54
2021/08/18 06:12:15;;;;;;;7.72;2.90;;;;;;;;;;4978729;28;20073;-56
2021/08/18 06:14:42;;;;;;;4.20;1.90;;;;;;;;;;4985153;28;20126;-57
2021/08/18 06:17:08;;;;;;;6.18;2.47;;;;;;;;;;4978747;28;20051;-56
2021/08/18 06:19:35;;;;;;;6.05;2.20;;;;;;;;;;4984532;28;20038;-56
2021/08/18 06:22:03;;;;;;;5.80;2.15;;;;;;;;;;4992371;28;20030;-56
2021/08/18 06:24:40;;;;;;;5.07;2.25;;;;;;;;;;5003792;28;20066;-56
2021/08/18 06:27:07;;;;;;;7.10;2.58;;;;;;;;;;4986805;28;20066;-55
2021/08/18 06:29:34;;;;;;;6.35;2.28;;;;;;;;;;4983278;28;20042;-54
2021/08/18 06:32:01;;;;;;;5.88;2.40;;;;;;;;;;4990846;28;20073;-55
2021/08/18 06:34:28;;;;;;;5.80;2.35;;;;;;;;;;5005017;28;20042;-56
2021/08/18 06:36:54;;;;;;;8.95;2.70;;;;;;;;;;4993397;28;20047;-56
2021/08/18 06:39:22;;;;;;;7.45;2.20;;;;;;;;;;4984081;28;20043;-57
2021/08/18 06:41:48;;;;;;;6.67;2.33;;;;;;;;;;4979342;28;20053;-56
2021/08/18 06:44:15;;;;;;;6.68;2.20;;;;;;;;;;4983460;28;20042;-55
2021/08/18 06:46:41;;;;;;;5.07;1.90;;;;;;;;;;4981850;28;20054;-54
2021/08/18 06:49:08;;;;;;;5.32;2.22;;;;;;;;;;4982212;28;20039;-56
2021/08/18 06:51:35;;;;;;;5.93;2.53;;;;;;;;;;4985901;28;20058;-55
2021/08/18 06:54:01;;;;;;;5.93;2.05;;;;;;;;;;5000451;28;20066;-57
2021/08/18 06:56:29;;;;;;;6.15;2.00;;;;;;;;;;5004129;28;20027;-53
2021/08/18 06:58:57;;;;;;;3.97;2.03;;;;;;;;;;4984101;28;20053;-53
2021/08/18 07:01:33;;;;;;;5.13;2.00;;;;;;;;;;4983347;28;20289;-56
2021/08/18 07:04:01;;;;;;;;;;;;;;;;;;4981001;28;20473;-55
2021/08/18 07:06:28;;;;;;;3.85;1.65;;;;;;;;;;5004676;28;19940;-54
2021/08/18 07:08:54;;;;;;;8.27;2.63;;;;;;;;;;4990798;28;20042;-55
2021/08/18 07:11:23;;;;;;;4.80;2.20;;;;;;;;;;4985825;28;20050;-56
2021/08/18 07:13:50;;;;;;;7.20;2.00;;;;;;;;;;4983744;28;20054;-54
2021/08/18 07:16:17;;;;;;;5.43;1.88;;;;;;;;;;4987842;28;20038;-56
2021/08/18 07:18:43;;;;;;;7.35;1.65;;;;;;;;;;5008858;28;20034;-58
2021/08/18 07:21:10;;;;;;;4.35;1.70;;;;;;;;;;5006346;28;20045;-57
2021/08/18 07:23:36;;;;;;;5.55;1.60;;;;;;;;;;5002279;28;20073;-56
2021/08/18 07:26:02;;;;;;;3.25;1.65;;;;;;;;;;5007880;28;20030;-56
2021/08/18 07:28:29;;;;;;;4.18;1.70;;;;;;;;;;5002605;28;20030;-56
2021/08/18 07:30:57;;;;;;;3.90;1.67;;;;;;;;;;4987289;28;20491;-55
2021/08/18 07:33:23;;;;;;;4.00;1.97;;;;;;;;;;4983293;28;20089;-55
2021/08/18 07:35:50;;;;;;;5.93;2.30;;;;;;;;;;5004488;28;20042;-57
2021/08/18 07:38:17;;;;;;;5.03;2.38;;;;;;;;;;4985511;28;20049;-57
2021/08/18 07:40:44;;;;;;;9.30;2.15;;;;;;;;;;5001326;28;20038;-57
2021/08/18 07:43:10;;;;;;;6.50;1.55;;;;;;;;;;5004938;28;20046;-56
2021/08/18 07:45:37;;;;;;;4.05;1.90;;;;;;;;;;4987934;28;20046;-55
2021/08/18 07:48:05;;;;;;;6.13;1.88;;;;;;;;;;4986424;28;20050;-56
2021/08/18 07:50:31;;;;;;;5.88;1.88;;;;;;;;;;4994451;28;20107;-55
2021/08/18 07:52:58;;;;;;;3.42;1.55;;;;;;;;;;5023585;28;20068;-56
2021/08/18 07:55:24;;;;;;;6.40;1.80;;;;;;;;;;4999553;28;20053;-56
2021/08/18 07:57:51;;;;;;;5.22;1.85;;;;;;;;;;5006022;28;20046;-55
2021/08/18 08:00:19;;;;;;;7.65;2.40;;;;;;;;;;5002054;28;20042;-56
2021/08/18 08:02:46;;;;;;;7.28;3.13;;;;;;;;;;5004613;28;20096;-57
2021/08/18 08:05:15;;;;;;;8.85;3.17;;;;;;;;;;4998040;28;20078;-56
2021/08/18 08:07:41;;;;;;;4.80;2.38;;;;;;;;;;5001565;28;20066;-57
2021/08/18 08:10:10;;;;;;;5.18;2.35;;;;;;;;;;5001197;28;20140;-54
2021/08/18 08:12:39;;;;;;;5.68;2.30;;;;;;;;;;5002233;28;20050;-55
2021/08/18 08:15:07;;;;;;;7.10;2.15;;;;;;;;;;4997742;28;20046;-57
2021/08/18 08:17:34;;;;;;;6.85;2.47;;;;;;;;;;5000717;28;20046;-54
2021/08/18 08:20:01;;;;;;;6.38;2.33;;;;;;;;;;4999996;28;20218;-56
2021/08/18 08:22:31;;;;;;;5.43;2.42;;;;;;;;;;4978357;28;20071;-56
2021/08/18 08:24:58;;;;;;;14.35;3.05;;;;;;;;;;4981885;28;20034;-55
2021/08/18 08:27:24;;;;;;;7.72;2.97;;;;;;;;;;4997065;28;20050;-57
2021/08/18 08:29:51;;;;;;;9.57;4.03;;;;;;;;;;5001716;28;20038;-57
2021/08/18 08:32:17;;;;;;;9.00;2.85;;;;;;;;;;4996897;28;20038;-57
2021/08/18 08:34:44;;;;;;;11.30;2.88;;;;;;;;;;5001779;28;20140;-56
2021/08/18 08:37:10;;;;;;;11.82;3.38;;;;;;;;;;4987748;28;20065;-56
2021/08/18 08:39:38;;;;;;;11.32;3.80;;;;;;;;;;4981710;28;20053;-56
2021/08/18 08:42:05;;;;;;;15.77;3.67;;;;;;;;;;4979765;28;20050;-55
2021/08/18 08:44:33;;;;;;;14.50;3.22;;;;;;;;;;4984194;28;20117;-57
2021/08/18 08:47:00;;;;;;;8.50;3.20;;;;;;;;;;4979585;28;20057;-57
2021/08/18 08:49:26;;;;;;;9.02;3.28;;;;;;;;;;4983393;28;20046;-54
2021/08/18 08:51:54;;;;;;;8.70;3.20;;;;;;;;;;4982104;28;20034;-54
2021/08/18 08:54:29;;;;;;;7.25;3.20;;;;;;;;;;4982881;28;20046;-58
2021/08/18 08:56:57;;;;;;;10.93;3.05;;;;;;;;;;4980684;28;20042;-57
2021/08/18 08:59:23;;;;;;;11.35;2.97;;;;;;;;;;4983460;28;20035;-55
2021/08/18 09:02:03;;;;;;;10.77;2.85;;;;;;;;;;4982530;28;20038;-57
2021/08/18 09:04:30;;;;;;;6.00;3.00;;;;;;;;;;5003607;28;20046;-58
2021/08/18 09:07:07;;;;;;;7.55;3.20;;;;;;;;;;4999211;28;20177;-57
2021/08/18 09:09:36;;;;;;;10.48;3.05;;;;;;;;;;4982093;28;20057;-56
2021/08/18 09:12:06;;;;;;;10.48;3.17;;;;;;;;;;4983702;28;20145;-57
2021/08/18 09:14:33;;;;;;;13.50;4.38;;;;;;;;;;4980502;28;20047;-57
2021/08/18 09:16:59;;;;;;;12.05;3.97;;;;;;;;;;4982711;28;20046;-57
2021/08/18 09:19:29;;;;;;;9.65;3.75;;;;;;;;;;4978925;28;20065;-57
2021/08/18 09:22:05;;;;;;;10.35;3.85;;;;;;;;;;4982719;28;20044;-57
2021/08/18 09:24:31;;;;;;;11.63;4.32;;;;;;;;;;4978678;28;20042;-57
2021/08/18 09:26:58;;;;;;;8.95;4.28;;;;;;;;;;4983351;28;20042;-57
2021/08/18 09:29:27;;;;;;;12.98;4.65;;;;;;;;;;4991103;28;20038;-58
2021/08/18 09:31:56;;;;;;;9.20;4.63;;;;;;;;;;5000178;28;20037;-57
2021/08/18 09:34:25;;;;;;;8.85;4.82;;;;;;;;;;4985643;28;20061;-56
2021/08/18 09:36:51;;;;;;;11.73;5.25;;;;;;;;;;4982367;28;20105;-56
2021/08/18 09:39:18;;;;;;;12.57;5.07;;;;;;;;;;4980714;28;20046;-57
2021/08/18 09:41:46;;;;;;;12.23;6.13;;;;;;;;;;4996752;28;20042;-57
2021/08/18 09:44:12;;;;;;;12.95;6.30;;;;;;;;;;4989951;28;20027;-57
2021/08/18 09:46:40;;;;;;;14.05;6.55;;;;;;;;;;4982124;28;20042;-57
2021/08/18 09:49:07;;;;;;;12.10;6.50;;;;;;;;;;4979095;28;20049;-58
2021/08/18 09:51:33;;;;;;;10.25;5.90;;;;;;;;;;4980050;28;20035;-56
2021/08/18 09:54:11;;;;;;;14.57;6.88;;;;;;;;;;4972148;28;20099;-57
2021/08/18 09:56:41;;;;;;;12.80;5.90;;;;;;;;;;4999683;28;20046;-57
2021/08/18 09:59:08;;;;;;;14.95;7.10;;;;;;;;;;4995912;28;20053;-55
2021/08/18 10:01:35;;;;;;;10.90;6.65;;;;;;;;;;5002085;28;20074;-58
2021/08/18 10:04:03;;;;;;;13.15;7.13;;;;;;;;;;5002534;28;20061;-58
2021/08/18 10:06:30;;;;;;;14.52;6.50;;;;;;;;;;5000735;28;20034;-58
2021/08/18 10:08:57;;;;;;;12.23;6.22;;;;;;;;;;5002523;28;20042;-58
2021/08/18 10:11:30;;;;;;;10.32;6.10;;;;;;;;;;4982403;28;20034;-57
2021/08/18 10:13:57;;;;;;;11.68;6.05;;;;;;;;;;4983313;28;20050;-57
2021/08/18 10:16:24;;;;;;;11.23;5.85;;;;;;;;;;4981095;28;20042;-57
2021/08/18 10:19:12;;;;;;;10.20;5.43;;;;;;;;;;4977127;28;20049;-57
2021/08/18 10:21:43;;;;;;;8.50;5.10;;;;;;;;;;4979837;28;20049;-57
2021/08/18 10:24:27;;;;;;;9.77;4.88;;;;;;;;;;4985010;28;20042;-58
2021/08/18 10:26:56;;;;;;;7.90;4.03;;;;;;;;;;4981114;28;20042;-58
2021/08/18 10:29:36;;;;;;;9.98;4.63;;;;;;;;;;4984003;28;20034;-58
2021/08/18 10:32:04;;;;;;;7.70;4.80;;;;;;;;;;4996123;28;20122;-58
2021/08/18 10:34:35;;;;;;;12.13;5.30;;;;;;;;;;5005317;28;20041;-58
2021/08/18 10:37:04;;;;;;;8.85;4.88;;;;;;;;;;4989420;28;20034;-58
2021/08/18 10:39:31;;;;;;;9.32;5.20;;;;;;;;;;4985477;28;20050;-57
2021/08/18 10:41:59;;;;;;;9.13;5.20;;;;;;;;;;4989256;28;20074;-58
2021/08/18 10:44:33;;;;;;;10.23;5.07;;;;;;;;;;5000403;28;20042;-57
2021/08/18 10:47:20;;;;;;;11.50;5.30;;;;;;;;;;5002387;28;20086;-57
2021/08/18 10:49:48;;;;;;;11.50;5.97;;;;;;;;;;5001402;28;20100;-58
2021/08/18 10:52:29;;;;;;;12.00;5.75;;;;;;;;;;4990494;28;20030;-57
2021/08/18 10:55:04;;;;;;;10.82;5.97;;;;;;;;;;4994686;28;20042;-58
2021/08/18 10:57:38;;;;;;;10.52;5.53;;;;;;;;;;4992426;28;20038;-57
2021/08/18 11:00:15;;;;;;;10.27;5.38;;;;;;;;;;4986574;28;20109;-57
2021/08/18 11:02:53;;;;;;;10.90;5.72;;;;;;;;;;4983774;28;20057;-57
2021/08/18 11:05:20;;;;;;;8.90;5.10;;;;;;;;;;4985909;28;20145;-57
2021/08/18 11:08:06;;;;;;;8.80;5.07;;;;;;;;;;4983387;28;20057;-56
2021/08/18 11:10:34;;;;;;;8.65;4.78;;;;;;;;;;4986433;28;20054;-56
2021/08/18 11:13:01;;;;;;;7.65;4.35;;;;;;;;;;4994163;28;20037;-57
2021/08/18 11:15:46;;;;;;;8.30;4.47;;;;;;;;;;5005336;28;20033;-57
2021/08/18 11:18:13;;;;;;;6.85;3.63;;;;;;;;;;4992261;28;20038;-58
2021/08/18 11:20:46;;;;;;;7.07;3.75;;;;;;;;;;4985232;28;20042;-58
2021/08/18 11:23:13;;;;;;;8.65;4.32;;;;;;;;;;4988359;28;20030;-56
2021/08/18 11:25:44;;;;;;;7.75;4.00;;;;;;;;;;4999378;28;20049;-57
2021/08/18 11:28:20;;;;;;;7.18;4.53;;;;;;;;;;5007488;28;20037;-57
2021/08/18 11:30:54;;;;;;;8.00;4.20;;;;;;;;;;5005214;28;20034;-57
2021/08/18 11:33:22;;;;;;;9.20;5.30;;;;;;;;;;4997643;28;20046;-57
2021/08/18 11:35:48;;;;;;;11.70;6.10;;;;;;;;;;5006769;28;20093;-58
2021/08/18 11:38:15;;;;;;;12.70;7.07;;;;;;;;;;4983859;28;20128;-57
2021/08/18 11:40:43;;;;;;;15.05;7.68;;;;;;;;;;4985685;28;20042;-57
2021/08/18 11:43:17;;;;;;;12.05;6.57;;;;;;;;;;4981494;28;20046;-57
2021/08/18 11:45:52;;;;;;;14.55;7.18;;;;;;;;;;5002812;28;20053;-57
2021/08/18 11:48:20;;;;;;;15.50;6.97;;;;;;;;;;4983142;28;20057;-58
2021/08/18 11:50:53;;;;;;;12.20;6.68;;;;;;;;;;4986336;28;20049;-57
2021/08/18 11:53:21;;;;;;;12.55;6.43;;;;;;;;;;4984647;28;20041;-58
2021/08/18 11:55:48;;;;;;;10.23;5.22;;;;;;;;;;5001797;28;20104;-59
2021/08/18 11:58:15;;;;;;;11.48;5.90;;;;;;;;;;5005894;28;20180;-58
2021/08/18 12:00:42;;;;;;;10.50;5.60;;;;;;;;;;5000912;28;20050;-59
2021/08/18 12:03:09;;;;;;;12.80;6.30;;;;;;;;;;4986267;28;20296;-57
2021/08/18 12:05:37;;;;;;;11.52;5.90;;;;;;;;;;4979863;28;20039;-59
2021/08/18 12:08:07;;;;;;;14.82;6.68;;;;;;;;;;4983521;28;20052;-58
2021/08/18 12:10:42;;;;;;;12.90;6.88;;;;;;;;;;4981011;28;20118;-58
2021/08/18 12:13:10;;;;;;;15.48;7.20;;;;;;;;;;4985221;28;20521;-59
2021/08/18 12:15:42;;;;;;;13.63;7.18;;;;;;;;;;4980377;28;20056;-58
2021/08/18 12:18:23;;;;;;;14.65;6.25;;;;;;;;;;4982744;28;20050;-58
2021/08/18 12:20:55;;;;;;;12.45;6.25;;;;;;;;;;4979393;28;20047;-59
2021/08/18 12:23:24;;;;;;;14.43;8.00;;;;;;;;;;4982921;28;20098;-58
2021/08/18 12:25:50;;;;;;;;;;;;;;;;;;4979804;28;20086;-58
2021/08/18 12:28:17;;;;;;;13.25;6.60;;;;;;;;;;4981305;28;19999;-58
2021/08/18 12:30:59;;;;;;;13.43;6.57;;;;;;;;;;4986222;28;20057;-58
2021/08/18 12:33:28;;;;;;;15.00;6.95;;;;;;;;;;5000911;28;20038;-57
2021/08/18 12:36:05;;;;;;;15.25;6.95;;;;;;;;;;4993077;28;20378;-59
2021/08/18 12:38:32;;;;;;;14.77;6.47;;;;;;;;;;4980987;28;20034;-58
2021/08/18 12:41:11;;;;;;;11.32;6.30;;;;;;;;;;4979489;28;20035;-59
2021/08/18 12:43:37;;;;;;;16.85;6.47;;;;;;;;;;4980295;28;20046;-58
2021/08/18 12:46:05;;;;;;;13.10;6.82;;;;;;;;;;4979001;28;20039;-57
2021/08/18 12:48:32;;;;;;;13.15;6.00;;;;;;;;;;4981244;28;20057;-58
2021/08/18 12:51:11;;;;;;;16.13;6.13;;;;;;;;;;4982716;28;20052;-58
2021/08/18 12:53:37;;;;;;;12.60;5.85;;;;;;;;;;5001707;28;20042;-57
2021/08/18 12:56:04;;;;;;;12.40;6.03;;;;;;;;;;4994278;28;20034;-57
2021/08/18 12:58:30;;;;;;;12.15;5.80;;;;;;;;;;4982756;28;20041;-58
2021/08/18 13:00:58;;;;;;;9.50;5.15;;;;;;;;;;4982731;28;20034;-58
2021/08/18 13:03:26;;;;;;;12.65;5.03;;;;;;;;;;4981563;28;20102;-58
2021/08/18 13:05:52;;;;;;;11.50;5.57;;;;;;;;;;4982674;28;20042;-58
2021/08/18 13:08:19;;;;;;;12.75;5.32;;;;;;;;;;4976632;28;20062;-58
2021/08/18 13:10:47;;;;;;;10.10;5.55;;;;;;;;;;4991732;28;20042;-58
2021/08/18 13:13:13;;;;;;;12.13;6.20;;;;;;;;;;4983622;28;20085;-58
2021/08/18 13:15:40;;;;;;;14.60;6.22;;;;;;;;;;4983175;28;20043;-58
2021/08/18 13:18:06;;;;;;;16.30;6.30;;;;;;;;;;4992766;28;20057;-58
2021/08/18 13:20:34;;;;;;;13.23;5.80;;;;;;;;;;5000513;28;20038;-58
2021/08/18 13:23:00;;;;;;;13.88;5.80;;;;;;;;;;4997770;28;20054;-57
2021/08/18 13:25:27;;;;;;;16.35;5.63;;;;;;;;;;5003684;28;20042;-58
2021/08/18 13:27:53;;;;;;;8.15;4.03;;;;;;;;;;4991074;28;20053;-59
2021/08/18 13:30:23;;;;;;;9.13;3.63;;;;;;;;;;4982494;28;20050;-59
2021/08/18 13:32:50;;;;;;;8.93;4.57;;;;;;;;;;4982168;28;20038;-59
2021/08/18 13:35:16;;;;;;;7.55;3.95;;;;;;;;;;5001340;28;20098;-58
2021/08/18 13:37:44;;;;;;;7.10;3.60;;;;;;;;;;4998080;28;20097;-57
2021/08/18 13:40:13;;;;;;;8.47;3.63;;;;;;;;;;4997674;28;20035;-58
2021/08/18 13:42:39;;;;;;;8.95;3.70;;;;;;;;;;4997984;28;20286;-57
2021/08/18 13:45:06;;;;;;;9.68;3.50;;;;;;;;;;4981662;28;20047;-58
2021/08/18 13:47:34;;;;;;;5.97;3.08;;;;;;;;;;4983399;28;20129;-58
2021/08/18 13:50:01;;;;;;;7.15;2.92;;;;;;;;;;4980310;28;20074;-59
2021/08/18 13:52:27;;;;;;;6.85;2.83;;;;;;;;;;4982717;28;20039;-59
2021/08/18 13:54:55;;;;;;;6.32;2.72;;;;;;;;;;4987468;28;20046;-58
2021/08/18 13:57:23;;;;;;;11.45;3.20;;;;;;;;;;4999949;28;20038;-59
2021/08/18 13:59:50;;;;;;;10.23;3.00;;;;;;;;;;4997460;28;20123;-59
2021/08/18 14:02:16;;;;;;;6.13;2.55;;;;;;;;;;5000996;28;20086;-59
2021/08/18 14:04:43;;;;;;;7.10;2.53;;;;;;;;;;4986427;28;20117;-59
2021/08/18 14:07:09;;;;;;;7.15;3.30;;;;;;;;;;4983129;28;20128;-58
2021/08/18 14:09:36;;;;;;;6.38;3.08;;;;;;;;;;4978182;28;20042;-56
2021/08/18 14:12:04;;;;;;;7.82;2.95;;;;;;;;;;5001081;28;20035;-57
2021/08/18 14:14:31;;;;;;;8.75;2.92;;;;;;;;;;4990891;28;20162;-58
2021/08/18 14:16:57;;;;;;;7.35;3.05;;;;;;;;;;4981211;28;20047;-58
2021/08/18 14:19:24;;;;;;;6.43;2.75;;;;;;;;;;4980791;28;20128;-58
2021/08/18 14:21:50;;;;;;;7.68;2.50;;;;;;;;;;5003352;28;20050;-58
2021/08/18 14:24:16;;;;;;;6.70;2.28;;;;;;;;;;4999190;28;20030;-58
2021/08/18 14:26:43;;;;;;;6.03;2.28;;;;;;;;;;4985808;28;20050;-58
2021/08/18 14:29:11;;;;;;;5.38;2.40;;;;;;;;;;4983071;28;20063;-59
2021/08/18 14:31:39;;;;;;;10.02;2.53;;;;;;;;;;4983038;28;20061;-58
2021/08/18 14:34:05;;;;;;;7.30;2.77;;;;;;;;;;4984326;28;20042;-58
2021/08/18 14:36:31;;;;;;;7.70;2.63;;;;;;;;;;4978730;28;20280;-58
2021/08/18 14:38:58;;;;;;;5.30;2.58;;;;;;;;;;4984885;28;20043;-58
2021/08/18 14:41:26;;;;;;;8.45;2.58;;;;;;;;;;4979818;28;20053;-58
2021/08/18 14:43:52;;;;;;;6.38;2.63;;;;;;;;;;4984624;28;20027;-58
2021/08/18 14:46:20;;;;;;;8.50;3.15;;;;;;;;;;4981394;28;20044;-58